createdAt,value
2019-04-30T00:00:12.518Z,97.80
2019-04-30T00:02:50.020Z,97.80
2019-04-30T00:05:19.192Z,98.30
2019-04-30T00:07:50.794Z,98.80
2019-04-30T00:10:19.268Z,98.40
2019-04-30T00:12:48.449Z,97.70
2019-04-30T00:15:19.512Z,98.70
2019-04-30T00:17:52.841Z,98.40
2019-04-30T00:20:19.503Z,98.50
2019-04-30T00:22:50.395Z,98.60
2019-04-30T00:25:24.240Z,99.20
2019-04-30T00:27:50.644Z,98.70
2019-04-30T00:30:19.775Z,99.00
2019-04-30T00:32:48.912Z,98.10
2019-04-30T00:35:19.623Z,97.50
2019-04-30T00:37:52.007Z,98.30
2019-04-30T00:40:21.714Z,96.40
2019-04-30T00:42:50.698Z,97.10
2019-04-30T00:45:19.859Z,97.20
2019-04-30T00:47:49.083Z,97.40
2019-04-30T00:50:18.269Z,98.40
2019-04-30T00:52:47.416Z,97.10
2019-04-30T00:55:16.553Z,96.30
2019-04-30T00:57:47.415Z,96.10
2019-04-30T01:00:25.327Z,94.30
2019-04-30T01:03:00.961Z,92.70
2019-04-30T01:05:29.165Z,92.00
2019-04-30T01:07:58.386Z,92.50
2019-04-30T01:10:28.451Z,92.50
2019-04-30T01:12:59.830Z,92.90
2019-04-30T01:15:29.278Z,92.80
2019-04-30T01:17:59.378Z,94.10
2019-04-30T01:20:32.705Z,93.80
2019-04-30T01:23:03.075Z,93.50
2019-04-30T01:25:31.624Z,93.60
2019-04-30T01:28:00.990Z,93.90
2019-04-30T01:30:30.505Z,94.30
2019-04-30T01:33:01.088Z,94.70
2019-04-30T01:35:32.671Z,95.20
2019-04-30T01:38:04.190Z,94.50
2019-04-30T01:40:32.238Z,94.70
2019-04-30T01:43:01.462Z,95.10
2019-04-30T01:45:31.718Z,95.80
2019-04-30T01:48:08.785Z,94.70
2019-04-30T01:50:33.707Z,95.40
2019-04-30T01:53:04.721Z,94.90
2019-04-30T01:55:49.487Z,96.20
2019-04-30T01:58:24.952Z,95.00
2019-04-30T02:00:57.028Z,95.90
2019-04-30T02:03:26.680Z,97.40
2019-04-30T02:05:55.885Z,97.50
2019-04-30T02:08:25.471Z,97.60
2019-04-30T02:10:54.743Z,97.90
2019-04-30T02:13:23.879Z,98.20
2019-04-30T02:15:53.368Z,98.00
2019-04-30T02:18:22.646Z,97.00
2019-04-30T02:20:51.782Z,96.40
2019-04-30T02:23:20.958Z,97.60
2019-04-30T02:25:50.242Z,97.20
2019-04-30T02:28:19.388Z,96.20
2019-04-30T02:30:50.554Z,97.60
2019-04-30T02:33:20.227Z,97.60
2019-04-30T02:35:56.705Z,97.90
2019-04-30T02:38:34.286Z,98.30
2019-04-30T02:41:04.400Z,98.70
2019-04-30T02:43:35.173Z,98.90
2019-04-30T02:46:05.616Z,97.90
2019-04-30T02:48:39.639Z,99.20
2019-04-30T02:51:10.806Z,99.50
2019-04-30T02:54:24.029Z,99.60
2019-04-30T02:57:05.667Z,99.50
2019-04-30T02:59:36.895Z,99.90
2019-04-30T03:02:06.027Z,97.90
2019-04-30T03:04:35.181Z,99.20
2019-04-30T03:07:04.912Z,97.70
2019-04-30T03:09:34.139Z,98.30
2019-04-30T03:12:03.752Z,98.60
2019-04-30T03:14:32.938Z,98.10
2019-04-30T03:17:12.853Z,97.00
2019-04-30T03:19:50.210Z,99.60
2019-04-30T03:22:22.104Z,98.10
2019-04-30T03:24:51.255Z,98.50
2019-04-30T03:27:21.897Z,98.00
2019-04-30T03:29:51.319Z,96.90
2019-04-30T03:32:22.490Z,97.90
2019-04-30T03:34:52.142Z,97.40
2019-04-30T03:37:21.703Z,97.90
2019-04-30T03:39:50.826Z,98.30
2019-04-30T03:42:20.100Z,97.40
2019-04-30T03:44:49.888Z,98.50
2019-04-30T03:47:20.225Z,98.90
2019-04-30T03:49:50.067Z,99.10
2019-04-30T03:52:19.977Z,99.40
2019-04-30T03:54:49.670Z,99.90
2019-04-30T03:57:20.456Z,99.90
2019-04-30T03:59:50.167Z,99.90
2019-04-30T04:02:32.671Z,99.90
2019-04-30T04:05:16.825Z,99.40
2019-04-30T04:08:04.162Z,99.90
2019-04-30T04:10:40.420Z,99.90
2019-04-30T04:13:10.377Z,99.90
2019-04-30T04:15:40.136Z,99.90
2019-04-30T04:18:10.629Z,99.90
2019-04-30T04:20:42.899Z,99.90
2019-04-30T04:23:11.227Z,99.90
2019-04-30T04:25:40.358Z,99.90
2019-04-30T04:28:10.207Z,99.90
2019-04-30T04:30:42.887Z,99.90
2019-04-30T04:33:10.516Z,99.90
2019-04-30T04:35:39.695Z,99.90
2019-04-30T04:38:12.249Z,99.70
2019-04-30T04:40:40.121Z,99.90
2019-04-30T04:43:10.424Z,99.90
2019-04-30T04:45:40.422Z,99.90
2019-04-30T04:48:10.661Z,99.90
2019-04-30T04:50:40.173Z,99.90
2019-04-30T04:53:11.568Z,99.90
2019-04-30T04:55:40.509Z,99.90
2019-04-30T04:58:12.744Z,99.90
2019-04-30T05:00:40.571Z,99.90
2019-04-30T05:03:20.163Z,99.90
2019-04-30T05:05:50.047Z,99.90
2019-04-30T05:08:19.440Z,99.90
2019-04-30T05:10:49.514Z,99.90
2019-04-30T05:13:19.295Z,99.90
2019-04-30T05:15:51.599Z,99.90
2019-04-30T05:18:22.726Z,99.80
2019-04-30T05:20:51.852Z,99.60
2019-04-30T05:23:21.892Z,99.90
2019-04-30T05:25:51.452Z,99.90
2019-04-30T05:28:20.662Z,99.60
2019-04-30T05:30:49.801Z,99.20
2019-04-30T05:33:18.983Z,99.90
2019-04-30T05:35:49.604Z,99.90
2019-04-30T05:38:19.095Z,99.70
2019-04-30T05:40:49.607Z,99.90
2019-04-30T05:43:19.320Z,99.90
2019-04-30T05:45:49.164Z,99.80
2019-04-30T05:48:18.970Z,99.90
2019-04-30T05:50:51.436Z,99.40
2019-04-30T05:53:19.519Z,99.30
2019-04-30T05:55:49.378Z,99.40
2019-04-30T05:58:19.702Z,99.90
2019-04-30T06:00:50.081Z,99.90
2019-04-30T06:03:27.520Z,99.90
2019-04-30T06:05:50.442Z,99.90
2019-04-30T06:08:21.669Z,99.90
2019-04-30T06:11:01.815Z,99.90
2019-04-30T06:13:41.580Z,99.90
2019-04-30T06:16:13.996Z,99.90
2019-04-30T06:18:43.227Z,99.90
2019-04-30T06:21:12.939Z,99.90
2019-04-30T06:23:42.151Z,99.90
2019-04-30T06:26:13.150Z,99.90
2019-04-30T06:28:42.709Z,99.90
2019-04-30T06:31:12.445Z,99.90
2019-04-30T06:33:41.887Z,99.90
2019-04-30T06:36:12.150Z,99.90
2019-04-30T06:38:41.397Z,99.90
2019-04-30T06:41:10.531Z,99.90
2019-04-30T06:43:39.919Z,99.90
2019-04-30T06:46:09.484Z,99.90
2019-04-30T06:48:41.835Z,99.90
2019-04-30T06:51:10.593Z,99.90
2019-04-30T06:53:40.251Z,99.90
2019-04-30T06:56:09.379Z,99.90
2019-04-30T06:58:38.867Z,99.90
2019-04-30T07:01:09.600Z,99.90
2019-04-30T07:03:38.915Z,99.90
2019-04-30T07:06:08.456Z,99.90
2019-04-30T07:08:57.885Z,99.90
2019-04-30T07:11:34.490Z,99.90
2019-04-30T07:14:03.976Z,99.90
2019-04-30T07:16:33.132Z,99.90
2019-04-30T07:19:02.347Z,99.90
2019-04-30T07:21:31.887Z,99.90
2019-04-30T07:24:02.773Z,99.90
2019-04-30T07:26:31.917Z,99.90
2019-04-30T07:29:02.588Z,99.90
2019-04-30T07:31:32.017Z,99.90
2019-04-30T07:34:01.186Z,99.90
2019-04-30T07:36:45.818Z,99.90
2019-04-30T07:39:01.433Z,99.90
2019-04-30T07:41:31.193Z,99.90
2019-04-30T07:44:00.719Z,99.90
2019-04-30T07:46:30.183Z,99.90
2019-04-30T07:49:00.759Z,99.90
2019-04-30T07:51:31.904Z,99.90
2019-04-30T07:54:01.240Z,99.90
2019-04-30T07:59:02.843Z,98.60
2019-04-30T08:01:32.550Z,99.90
2019-04-30T08:04:32.850Z,99.90
2019-04-30T08:07:04.282Z,98.20
2019-04-30T08:09:35.579Z,99.90
2019-04-30T08:09:39.708Z,96.70
2019-04-30T08:12:04.646Z,94.30
2019-04-30T08:14:33.864Z,91.60
2019-04-30T08:17:03.151Z,90.60
2019-04-30T08:19:32.323Z,88.50
2019-04-30T08:22:01.481Z,87.20
2019-04-30T08:24:30.618Z,85.10
2019-04-30T08:27:01.301Z,85.60
2019-04-30T08:29:30.813Z,83.80
2019-04-30T08:32:00.033Z,83.90
2019-04-30T08:34:29.387Z,82.40
2019-04-30T08:36:59.450Z,80.30
2019-04-30T08:39:29.511Z,77.60
2019-04-30T08:42:00.068Z,78.60
2019-04-30T08:44:29.619Z,79.80
2019-04-30T08:46:59.132Z,75.70
2019-04-30T08:49:30.404Z,77.00
2019-04-30T08:51:59.491Z,74.90
2019-04-30T08:54:29.503Z,75.40
2019-04-30T08:56:59.534Z,74.70
2019-04-30T08:59:29.578Z,77.60
2019-04-30T09:02:12.289Z,74.00
2019-04-30T09:04:29.977Z,71.50
2019-04-30T09:06:59.986Z,73.60
2019-04-30T09:09:29.643Z,74.80
2019-04-30T09:11:59.433Z,73.90
2019-04-30T09:14:29.803Z,75.20
2019-04-30T09:16:59.543Z,75.50
2019-04-30T09:19:29.747Z,73.10
2019-04-30T09:21:59.328Z,73.30
2019-04-30T09:24:30.773Z,73.40
2019-04-30T09:26:59.529Z,73.30
2019-04-30T09:29:29.308Z,72.00
2019-04-30T09:31:59.404Z,66.90
2019-04-30T09:34:29.244Z,65.70
2019-04-30T09:36:59.088Z,65.80
2019-04-30T09:39:29.573Z,66.10
2019-04-30T09:41:59.561Z,66.70
2019-04-30T09:44:30.803Z,67.80
2019-04-30T09:47:00.075Z,68.90
2019-04-30T09:49:29.508Z,67.10
2019-04-30T09:51:59.534Z,61.90
2019-04-30T09:54:29.899Z,66.00
2019-04-30T09:56:59.425Z,62.40
2019-04-30T09:59:29.206Z,60.60
2019-04-30T10:01:58.691Z,61.00
2019-04-30T10:04:30.076Z,61.20
2019-04-30T10:06:59.553Z,57.40
2019-04-30T10:09:29.411Z,61.00
2019-04-30T10:12:09.778Z,62.10
2019-04-30T10:14:40.966Z,65.10
2019-04-30T10:17:35.097Z,67.40
2019-04-30T10:20:05.661Z,68.40
2019-04-30T10:22:34.845Z,66.40
2019-04-30T10:25:05.134Z,63.90
2019-04-30T10:27:34.710Z,63.30
2019-04-30T10:30:05.167Z,62.90
2019-04-30T10:32:34.355Z,62.90
2019-04-30T10:35:03.533Z,62.40
2019-04-30T10:37:32.667Z,62.80
2019-04-30T10:40:01.867Z,61.70
2019-04-30T10:42:31.077Z,62.50
2019-04-30T10:45:00.379Z,58.60
2019-04-30T10:47:32.426Z,59.80
2019-04-30T10:50:00.479Z,58.40
2019-04-30T10:52:29.615Z,60.70
2019-04-30T10:54:59.601Z,64.00
2019-04-30T10:57:29.053Z,63.50
2019-04-30T10:59:58.676Z,57.70
2019-04-30T11:02:28.776Z,55.50
2019-04-30T11:04:59.100Z,57.90
2019-04-30T11:07:28.827Z,59.50
2019-04-30T11:09:58.940Z,62.40
2019-04-30T11:12:29.248Z,62.30
2019-04-30T11:14:58.709Z,59.10
2019-04-30T11:17:30.068Z,58.30
2019-04-30T11:19:59.298Z,59.40
2019-04-30T11:22:28.933Z,58.80
2019-04-30T11:25:02.365Z,55.00
2019-04-30T11:27:30.633Z,56.60
2019-04-30T11:30:03.533Z,55.80
2019-04-30T11:32:31.554Z,53.90
2019-04-30T11:35:01.093Z,56.80
2019-04-30T11:37:30.228Z,58.00
2019-04-30T11:39:59.413Z,58.50
2019-04-30T11:42:28.554Z,57.30
2019-04-30T11:44:58.695Z,56.60
2019-04-30T11:47:36.525Z,55.40
2019-04-30T11:50:15.411Z,58.40
2019-04-30T11:52:44.593Z,54.70
2019-04-30T11:55:14.338Z,54.70
2019-04-30T11:57:43.482Z,52.60
2019-04-30T12:00:20.622Z,50.60
2019-04-30T12:02:52.823Z,51.40
2019-04-30T12:05:20.931Z,52.90
2019-04-30T12:08:19.421Z,52.20
2019-04-30T12:10:55.463Z,52.60
2019-04-30T12:13:29.468Z,52.00
2019-04-30T12:15:59.070Z,49.30
2019-04-30T12:18:29.689Z,50.50
2019-04-30T12:20:58.869Z,50.80
2019-04-30T12:23:28.013Z,52.20
2019-04-30T12:25:59.149Z,51.60
2019-04-30T12:28:29.667Z,50.10
2019-04-30T12:30:59.161Z,48.60
2019-04-30T12:33:28.421Z,51.40
2019-04-30T12:35:59.632Z,52.30
2019-04-30T12:38:29.865Z,47.60
2019-04-30T12:40:59.475Z,47.10
2019-04-30T12:43:28.709Z,48.50
2019-04-30T12:46:04.899Z,47.00
2019-04-30T12:48:35.914Z,47.60
2019-04-30T12:51:16.592Z,46.10
2019-04-30T12:53:52.596Z,50.50
2019-04-30T12:56:30.861Z,47.10
2019-04-30T12:59:00.039Z,46.60
2019-04-30T13:01:33.925Z,47.00
2019-04-30T13:04:01.466Z,47.10
2019-04-30T13:06:31.360Z,47.00
2019-04-30T13:09:01.625Z,48.60
2019-04-30T13:11:32.167Z,45.00
2019-04-30T13:14:02.090Z,45.60
2019-04-30T13:16:31.738Z,43.80
2019-04-30T13:19:01.065Z,43.60
2019-04-30T13:21:30.256Z,43.10
2019-04-30T13:23:59.399Z,42.50
2019-04-30T13:26:28.647Z,40.90
2019-04-30T13:29:05.725Z,41.20
2019-04-30T13:31:34.945Z,43.30
2019-04-30T13:34:26.270Z,38.50
2019-04-30T13:36:55.469Z,42.20
2019-04-30T13:39:29.663Z,39.30
2019-04-30T13:42:14.561Z,42.50
2019-04-30T13:44:36.782Z,40.20
2019-04-30T13:47:06.017Z,40.30
2019-04-30T13:49:35.162Z,41.60
2019-04-30T13:52:04.540Z,39.40
2019-04-30T13:54:33.670Z,42.30
2019-04-30T13:57:02.808Z,41.30
2019-04-30T13:59:31.982Z,41.30
2019-04-30T14:02:01.190Z,39.60
2019-04-30T14:04:48.255Z,41.50
2019-04-30T14:07:40.253Z,39.80
2019-04-30T14:10:10.327Z,36.10
2019-04-30T14:12:44.484Z,35.80
2019-04-30T14:15:14.134Z,33.80
2019-04-30T14:17:43.279Z,33.20
2019-04-30T14:20:12.486Z,31.20
2019-04-30T14:22:41.738Z,30.10
2019-04-30T14:25:11.456Z,28.00
2019-04-30T14:27:49.386Z,29.50
2019-04-30T14:30:11.985Z,29.90
2019-04-30T14:32:41.130Z,29.00
2019-04-30T14:35:10.490Z,29.20
2019-04-30T14:37:39.674Z,30.60
2019-04-30T14:40:12.311Z,31.40
2019-04-30T14:42:46.934Z,33.60
2019-04-30T14:45:21.943Z,30.10
2019-04-30T14:48:07.608Z,32.40
2019-04-30T14:50:38.555Z,32.80
2019-04-30T14:53:28.377Z,36.00
2019-04-30T14:56:09.490Z,36.20
2019-04-30T14:59:03.482Z,37.60
2019-04-30T15:01:54.975Z,39.80
2019-04-30T15:04:24.213Z,42.40
2019-04-30T15:06:53.477Z,45.60
2019-04-30T15:09:22.797Z,40.70
2019-04-30T15:11:51.977Z,38.50
2019-04-30T15:14:21.135Z,36.90
2019-04-30T15:16:50.466Z,35.80
2019-04-30T15:19:19.935Z,38.50
2019-04-30T15:21:49.104Z,42.70
2019-04-30T15:24:26.347Z,46.10
2019-04-30T15:26:58.828Z,49.30
2019-04-30T15:29:26.767Z,44.50
2019-04-30T15:31:56.190Z,40.50
2019-04-30T15:34:25.338Z,38.90
2019-04-30T15:36:54.536Z,36.10
2019-04-30T15:39:42.746Z,36.70
2019-04-30T15:42:13.553Z,40.90
2019-04-30T15:44:45.722Z,40.60
2019-04-30T15:47:14.050Z,45.20
2019-04-30T15:49:43.324Z,47.10
2019-04-30T15:52:12.711Z,49.20
2019-04-30T15:54:41.879Z,52.00
2019-04-30T15:57:11.305Z,50.50
2019-04-30T15:59:41.963Z,47.50
2019-04-30T16:02:30.181Z,44.30
2019-04-30T16:05:17.226Z,41.90
2019-04-30T16:08:02.270Z,45.50
2019-04-30T16:11:00.461Z,45.20
2019-04-30T16:13:33.716Z,46.80
2019-04-30T16:16:02.993Z,48.90
2019-04-30T16:18:49.318Z,51.20
2019-04-30T16:21:19.375Z,51.40
2019-04-30T16:23:49.282Z,53.00
2019-04-30T16:26:18.632Z,52.60
2019-04-30T16:28:49.536Z,53.80
2019-04-30T16:31:20.496Z,52.70
2019-04-30T16:33:49.898Z,50.60
2019-04-30T16:36:19.367Z,47.20
2019-04-30T16:38:48.843Z,46.90
2019-04-30T16:41:30.777Z,45.50
2019-04-30T16:43:49.351Z,45.50
2019-04-30T16:46:18.826Z,47.30
2019-04-30T16:48:49.273Z,48.40
2019-04-30T16:51:18.869Z,49.00
2019-04-30T16:53:48.756Z,51.70
2019-04-30T16:56:18.697Z,53.60
2019-04-30T16:59:01.106Z,52.40
2019-04-30T17:01:32.493Z,54.40
2019-04-30T17:04:23.902Z,54.30
2019-04-30T17:06:59.659Z,52.70
2019-04-30T17:09:36.362Z,52.20
2019-04-30T17:12:33.439Z,49.90
2019-04-30T17:15:33.640Z,49.00
2019-04-30T17:18:03.192Z,50.00
2019-04-30T17:20:32.544Z,50.30
2019-04-30T17:23:01.833Z,51.70
2019-04-30T17:25:31.024Z,52.50
2019-04-30T17:28:01.488Z,53.90
2019-04-30T17:30:31.336Z,54.90
2019-04-30T17:33:00.520Z,57.60
2019-04-30T17:35:29.684Z,59.30
2019-04-30T17:37:58.989Z,61.80
2019-04-30T17:40:29.146Z,63.50
2019-04-30T17:42:58.423Z,64.30
2019-04-30T17:45:29.177Z,65.00
2019-04-30T17:47:58.525Z,66.00
2019-04-30T17:50:29.337Z,64.70
2019-04-30T17:53:00.567Z,65.70
2019-04-30T17:55:29.681Z,65.50
2019-04-30T17:57:58.835Z,67.20
2019-04-30T18:00:29.647Z,67.40
2019-04-30T18:02:58.897Z,67.40
2019-04-30T18:05:29.242Z,67.90
2019-04-30T18:07:58.787Z,68.10
2019-04-30T18:10:28.651Z,68.80
2019-04-30T18:12:57.992Z,69.30
2019-04-30T18:15:29.407Z,69.80
2019-04-30T18:18:23.684Z,70.60
2019-04-30T18:21:23.863Z,71.10
2019-04-30T18:24:10.813Z,71.90
2019-04-30T18:26:47.109Z,72.20
2019-04-30T18:29:16.487Z,73.00
2019-04-30T18:31:45.713Z,74.40
2019-04-30T18:34:15.025Z,74.60
2019-04-30T18:36:44.235Z,74.40
2019-04-30T18:39:13.883Z,75.20
2019-04-30T18:41:43.054Z,75.20
2019-04-30T18:44:12.297Z,76.10
2019-04-30T18:46:41.458Z,76.60
2019-04-30T18:49:10.632Z,76.30
2019-04-30T18:51:42.637Z,77.20
2019-04-30T18:54:10.697Z,78.20
2019-04-30T18:56:39.848Z,75.80
2019-04-30T18:59:09.146Z,77.50
2019-04-30T19:01:38.847Z,78.40
2019-04-30T19:04:09.201Z,78.30
2019-04-30T19:06:38.509Z,79.10
2019-04-30T19:09:29.485Z,79.50
2019-04-30T19:12:16.101Z,78.50
2019-04-30T19:15:03.905Z,78.80
2019-04-30T19:17:50.720Z,78.40
2019-04-30T19:20:23.242Z,78.60
2019-04-30T19:22:52.573Z,79.50
2019-04-30T19:25:21.762Z,79.20
2019-04-30T19:27:50.902Z,79.50
2019-04-30T19:30:20.623Z,79.50
2019-04-30T19:32:49.808Z,79.80
2019-04-30T19:35:19.022Z,80.50
2019-04-30T19:37:48.733Z,80.60
2019-04-30T19:40:19.106Z,81.20
2019-04-30T19:42:50.823Z,82.00
2019-04-30T19:45:19.413Z,82.10
2019-04-30T19:47:49.043Z,82.30
2019-04-30T19:50:19.332Z,82.90
2019-04-30T19:52:48.558Z,82.50
2019-04-30T19:55:20.403Z,83.00
2019-04-30T19:57:51.102Z,84.30
2019-04-30T20:00:20.150Z,83.90
2019-04-30T20:02:49.374Z,84.70
2019-04-30T20:05:19.440Z,85.20
2019-04-30T20:07:49.336Z,86.10
2019-04-30T20:10:19.579Z,85.80
2019-04-30T20:12:49.700Z,87.20
2019-04-30T20:15:22.208Z,87.30
2019-04-30T20:17:50.178Z,86.10
2019-04-30T20:20:19.337Z,88.10
2019-04-30T20:22:48.498Z,88.00
2019-04-30T20:25:19.055Z,88.40
2019-04-30T20:27:49.559Z,89.60
2019-04-30T20:30:19.555Z,90.00
2019-04-30T20:32:51.197Z,91.40
2019-04-30T20:35:19.894Z,90.30
2019-04-30T20:38:06.902Z,92.10
2019-04-30T20:40:43.544Z,92.00
2019-04-30T20:43:08.625Z,92.90
2019-04-30T20:45:38.041Z,93.30
2019-04-30T20:48:08.985Z,93.60
2019-04-30T20:50:38.406Z,94.90
2019-04-30T20:53:08.823Z,95.70
2019-04-30T20:55:40.484Z,95.30
2019-04-30T20:58:09.546Z,96.60
2019-04-30T21:00:39.044Z,96.50
2019-04-30T21:03:09.690Z,97.10
2019-04-30T21:05:40.845Z,97.80
2019-04-30T21:08:10.242Z,98.50
2019-04-30T21:10:39.747Z,98.50
2019-04-30T21:13:10.999Z,99.60
2019-04-30T21:15:39.838Z,99.90
2019-04-30T21:18:09.526Z,99.90
2019-04-30T21:20:38.913Z,99.90
2019-04-30T21:23:11.265Z,99.90
2019-04-30T21:25:40.426Z,99.90
2019-04-30T21:28:09.847Z,99.90
2019-04-30T21:30:39.279Z,99.90
2019-04-30T21:33:30.291Z,99.90
2019-04-30T21:36:08.754Z,99.90
2019-04-30T21:38:38.933Z,99.90
2019-04-30T21:41:09.946Z,99.90
2019-04-30T21:43:39.233Z,99.90
2019-04-30T21:46:09.529Z,99.90
2019-04-30T21:48:39.092Z,99.90
2019-04-30T21:51:09.461Z,99.90
2019-04-30T21:53:39.574Z,99.90
2019-04-30T21:56:09.078Z,99.90
2019-04-30T21:58:39.214Z,99.90
2019-04-30T22:01:26.082Z,99.90
2019-04-30T22:03:55.424Z,99.90
2019-04-30T22:06:24.694Z,99.90
2019-04-30T22:08:53.847Z,99.90
2019-04-30T22:11:23.026Z,99.90
2019-04-30T22:13:52.189Z,99.90
2019-04-30T22:16:21.438Z,99.90
2019-04-30T22:18:50.788Z,99.90
2019-04-30T22:21:19.945Z,99.90
2019-04-30T22:23:49.107Z,99.90
2019-04-30T22:26:18.280Z,99.90
2019-04-30T22:28:49.025Z,99.90
2019-04-30T22:31:19.754Z,99.90
2019-04-30T22:33:49.212Z,99.90
2019-04-30T22:36:43.258Z,99.90
2019-04-30T22:39:46.491Z,99.90
2019-04-30T22:42:39.743Z,99.90
2019-04-30T22:45:22.478Z,99.90
2019-04-30T22:47:51.634Z,99.90
2019-04-30T22:50:20.874Z,99.90
2019-04-30T22:52:50.363Z,99.90
2019-04-30T22:55:19.509Z,99.90
2019-04-30T22:57:48.658Z,99.90
2019-04-30T23:00:25.137Z,99.90
2019-04-30T23:03:00.518Z,99.90
2019-04-30T23:05:29.787Z,99.90
2019-04-30T23:07:59.035Z,99.90
2019-04-30T23:10:28.641Z,99.90
2019-04-30T23:12:57.809Z,99.90
2019-04-30T23:15:27.030Z,99.90
2019-04-30T23:17:56.178Z,99.90
2019-04-30T23:20:25.344Z,99.90
2019-04-30T23:22:54.626Z,99.90
2019-04-30T23:25:23.765Z,99.90
2019-04-30T23:27:53.012Z,99.90
2019-04-30T23:30:22.145Z,99.90
2019-04-30T23:32:51.269Z,99.90
2019-04-30T23:35:20.442Z,99.90
2019-04-30T23:37:49.569Z,99.90
2019-04-30T23:40:29.538Z,99.90
2019-04-30T23:42:59.080Z,99.90
2019-04-30T23:45:28.222Z,99.90
2019-04-30T23:47:57.462Z,99.90
2019-04-30T23:50:26.800Z,99.90
2019-04-30T23:52:56.260Z,99.90
2019-04-30T23:55:25.735Z,99.90
2019-04-30T23:57:54.889Z,99.90
